Current Weather

General Mitchell Intl

Milwaukee, Wisconsin (KMKE)

Report from: Friday, June 21, 2024 4:52 PM CDT
Current time: Friday, June 21, 2024 5:51 PM CDT

Nearby weather – Weather history – Daily summaries
Weather forecast

Temperature18.9°C (66.0°F)
Dew point17.2°C (63.0°F)
Winds 10 kts (5.1 m/s, 11.5 mph) Northeast (40°)
Visibility10 mi. (16.1 km)
Clouds Ceiling: Broken clouds 500 ft. (152 m)
Overcast 6,500 ft. (1,981 m)
Altimeter30.10 in.Hg (1019 mB)
Relative humidity90 %
Density altitude529 ft. (161 m)
Sea-level pressure101.9 kPa (1019 mB, 30.09 in.Hg)
Remarks Automated weather observing station with precipitation discriminator
Lightning observed
Distant northwest
Flight conditions Instrument Meteorological Conditions
Raw dataKMKE 212152Z 04010KT 10SM BKN005 OVC065 19/17 A3010 RMK AO2 LTG DSNT NW SLP191 T01890172
An error has occurred. This application may no longer respond until reloaded. Reload 🗙